Celebrity Infinity — 9HJD9 — position and weather

sailwx.info

Track history (hours):
 
Tides and Currents Weather Stations Pressure Air Temp Water Temp Dewpoint Dewpoint Depression Visibility Wind Speed Wind Dir Waves Ship Positions

Celebrity Infinity

Last reported at 2015-Aug-29 09:21 UTC. Time now 2015-Aug-31 15:25 UTC.
Position N 58°12' W 135°24'.

Length 294 m; draft 8.3 m.

Type: Passenger vessel. MMSI: 249048000.

Date/timePositionNaut miles runAvg speedWind from/ knotsBaromVisibWave heightAir tempDewpointWater temp
2015-Aug-29 09:21N 58°12' W 135°24'1215.3
2015-Aug-29 08:33N 58°18' W 135°44'15 3.0
2015-Aug-29 03:29N 58°19' W 136°13'1617.0
2015-Aug-29 02:33N 58°17' W 135°43'  
2015-Aug-24 11:33N 49°14' W 126°48'2020.1
2015-Aug-24 10:33N 49°02' W 126°23'2020.4
2015-Aug-24 09:33N 48°50' W 125°58'2120.7
2015-Aug-24 08:33N 48°39' W 125°32'2020.0
2015-Aug-24 07:33N 48°31' W 125°03'4720.6
2015-Aug-24 05:16N 48°18' W 123°56'1420.0
2015-Aug-24 04:33N 48°16' W 123°35'1313.3
2015-Aug-24 03:33N 48°23' W 123°18'1716.7
2015-Aug-24 02:33N 48°40' W 123°15'1414.1
2015-Aug-24 01:33N 48°53' W 123°06'2019.7
2015-Aug-24 00:33N 49°09' W 123°22'1413.7
2015-Aug-23 23:33N 49°18' W 123°07'1 0.9
2015-Aug-23 22:32N 49°17' W 123°07'0 0.0
2015-Aug-23 21:31N 49°17' W 123°07'0 0.0
2015-Aug-23 20:31N 49°17' W 123°07'0 0.0
2015-Aug-23 19:31N 49°17' W 123°07'0 0.0
2015-Aug-23 18:33N 49°17' W 123°07'0 0.0
2015-Aug-23 17:33N 49°17' W 123°07'0 0.0
2015-Aug-23 16:32N 49°17' W 123°07'0 0.0
2015-Aug-23 15:32N 49°17' W 123°07'0 0.0
2015-Aug-23 14:31N 49°17' W 123°07'0 0.0
2015-Aug-23 13:33N 49°17' W 123°07'7 7.0
2015-Aug-23 12:33N 49°19' W 123°17'1414.1
2015-Aug-23 11:34N 49°21' W 123°38'1413.9
2015-Aug-23 10:34N 49°22' W 123°60'1414.5
2015-Aug-23 09:34N 49°26' W 124°21'1413.7
2015-Aug-23 08:34N 49°35' W 124°36'1414.3
2015-Aug-23 07:34N 49°46' W 124°51'1413.9
2015-Aug-23 06:33N 49°56' W 125°06'1413.6
2015-Aug-23 05:33N 50°07' W 125°19'6013.9
2015-Aug-23 01:17N 50°34' W 126°42'1216.8
2015-Aug-23 00:33N 50°42' W 126°57'1717.6
2015-Aug-22 23:33N 50°49' W 127°22'1717.2
2015-Aug-22 22:33N 50°58' W 127°45'  
2015-Aug-20 12:00N 58°18' W 134°48'25 7.2 160 / 151012.410.8 2.012.0 11.0
2015-Aug-20 08:31N 58°16' W 135°36'1313.6
2015-Aug-20 07:33N 58°19' W 135°60'12714.8
2015-Aug-19 23:00N 59°12' W 139°42'61 5.6 170 / 121015.210.8 2.013.0 12.0
2015-Aug-19 12:00N 58°36' W 138°06'   220 / 81016.010.8 3.014.0 12.0
Track history (hours):
 
Tides and Currents Weather Stations Pressure Air Temp Water Temp Dewpoint Dewpoint Depression Visibility Wind Speed Wind Dir Waves Ship Positions

Celebrity Infinity

Last reported at 2015-Aug-29 09:21 UTC. Time now 2015-Aug-31 15:25 UTC.
Position N 58°12' W 135°24'.

Length 294 m; draft 8.3 m.

Type: Passenger vessel. MMSI: 249048000.

Date/timePositionNaut miles runAvg speedWind from/ knotsBaromVisibWave heightAir tempDewpointWater temp
2015-Aug-29 09:21N 58°12' W 135°24'1215.3
2015-Aug-29 08:33N 58°18' W 135°44'15 3.0
2015-Aug-29 03:29N 58°19' W 136°13'1617.0
2015-Aug-29 02:33N 58°17' W 135°43'  
2015-Aug-24 11:33N 49°14' W 126°48'2020.1
2015-Aug-24 10:33N 49°02' W 126°23'2020.4
2015-Aug-24 09:33N 48°50' W 125°58'2120.7
2015-Aug-24 08:33N 48°39' W 125°32'2020.0
2015-Aug-24 07:33N 48°31' W 125°03'4720.6
2015-Aug-24 05:16N 48°18' W 123°56'1420.0
2015-Aug-24 04:33N 48°16' W 123°35'1313.3
2015-Aug-24 03:33N 48°23' W 123°18'1716.7
2015-Aug-24 02:33N 48°40' W 123°15'1414.1
2015-Aug-24 01:33N 48°53' W 123°06'2019.7
2015-Aug-24 00:33N 49°09' W 123°22'1413.7
2015-Aug-23 23:33N 49°18' W 123°07'1 0.9
2015-Aug-23 22:32N 49°17' W 123°07'0 0.0
2015-Aug-23 21:31N 49°17' W 123°07'0 0.0
2015-Aug-23 20:31N 49°17' W 123°07'0 0.0
2015-Aug-23 19:31N 49°17' W 123°07'0 0.0
2015-Aug-23 18:33N 49°17' W 123°07'0 0.0
2015-Aug-23 17:33N 49°17' W 123°07'0 0.0
2015-Aug-23 16:32N 49°17' W 123°07'0 0.0
2015-Aug-23 15:32N 49°17' W 123°07'0 0.0
2015-Aug-23 14:31N 49°17' W 123°07'0 0.0
2015-Aug-23 13:33N 49°17' W 123°07'7 7.0
2015-Aug-23 12:33N 49°19' W 123°17'1414.1
2015-Aug-23 11:34N 49°21' W 123°38'1413.9
2015-Aug-23 10:34N 49°22' W 123°60'1414.5
2015-Aug-23 09:34N 49°26' W 124°21'1413.7
2015-Aug-23 08:34N 49°35' W 124°36'1414.3
2015-Aug-23 07:34N 49°46' W 124°51'1413.9
2015-Aug-23 06:33N 49°56' W 125°06'1413.6
2015-Aug-23 05:33N 50°07' W 125°19'6013.9
2015-Aug-23 01:17N 50°34' W 126°42'1216.8
2015-Aug-23 00:33N 50°42' W 126°57'1717.6
2015-Aug-22 23:33N 50°49' W 127°22'1717.2
2015-Aug-22 22:33N 50°58' W 127°45'  
2015-Aug-20 12:00N 58°18' W 134°48'25 7.2 160 / 151012.410.8 2.012.0 11.0
2015-Aug-20 08:31N 58°16' W 135°36'1313.6
2015-Aug-20 07:33N 58°19' W 135°60'12714.8
2015-Aug-19 23:00N 59°12' W 139°42'61 5.6 170 / 121015.210.8 2.013.0 12.0
2015-Aug-19 12:00N 58°36' W 138°06'   220 / 81016.010.8 3.014.0 12.0

Dump ship's entire track history